sensor_id;sensor_type;location;lat;lon;timestamp;P1;durP1;ratioP1;P2;durP2;ratioP2
74335;SDS011;62755;-33.398;-70.572;2022-11-14T00:01:41;5.70;;;2.10;;
74335;SDS011;62755;-33.398;-70.572;2022-11-14T00:04:10;7.53;;;2.20;;
74335;SDS011;62755;-33.398;-70.572;2022-11-14T00:06:40;9.55;;;1.67;;
74335;SDS011;62755;-33.398;-70.572;2022-11-14T00:09:09;8.07;;;2.40;;
74335;SDS011;62755;-33.398;-70.572;2022-11-14T00:11:39;14.90;;;7.07;;
74335;SDS011;62755;-33.398;-70.572;2022-11-14T00:14:08;12.85;;;2.60;;
74335;SDS011;62755;-33.398;-70.572;2022-11-14T00:16:40;21.02;;;6.78;;
74335;SDS011;62755;-33.398;-70.572;2022-11-14T00:19:09;21.25;;;9.35;;
74335;SDS011;62755;-33.398;-70.572;2022-11-14T00:21:39;14.35;;;5.75;;
74335;SDS011;62755;-33.398;-70.572;2022-11-14T00:24:08;20.48;;;6.55;;
74335;SDS011;62755;-33.398;-70.572;2022-11-14T00:26:37;15.27;;;4.50;;
74335;SDS011;62755;-33.398;-70.572;2022-11-14T00:29:09;12.20;;;3.90;;
74335;SDS011;62755;-33.398;-70.572;2022-11-14T00:31:41;20.17;;;7.63;;
74335;SDS011;62755;-33.398;-70.572;2022-11-14T00:34:10;16.75;;;4.03;;
74335;SDS011;62755;-33.398;-70.572;2022-11-14T00:36:40;10.57;;;4.10;;
74335;SDS011;62755;-33.398;-70.572;2022-11-14T00:39:11;11.60;;;2.70;;
74335;SDS011;62755;-33.398;-70.572;2022-11-14T00:41:41;20.70;;;5.82;;
74335;SDS011;62755;-33.398;-70.572;2022-11-14T00:44:10;20.50;;;5.85;;
74335;SDS011;62755;-33.398;-70.572;2022-11-14T00:46:41;13.88;;;4.88;;
74335;SDS011;62755;-33.398;-70.572;2022-11-14T00:49:11;17.05;;;6.82;;
74335;SDS011;62755;-33.398;-70.572;2022-11-14T00:51:40;14.23;;;2.58;;
74335;SDS011;62755;-33.398;-70.572;2022-11-14T00:54:10;10.85;;;3.78;;
74335;SDS011;62755;-33.398;-70.572;2022-11-14T00:56:39;15.18;;;5.28;;
74335;SDS011;62755;-33.398;-70.572;2022-11-14T00:59:09;12.63;;;3.85;;
74335;SDS011;62755;-33.398;-70.572;2022-11-14T01:01:38;29.05;;;15.80;;
74335;SDS011;62755;-33.398;-70.572;2022-11-14T01:04:10;20.35;;;6.90;;
74335;SDS011;62755;-33.398;-70.572;2022-11-14T01:06:39;11.50;;;4.63;;
74335;SDS011;62755;-33.398;-70.572;2022-11-14T01:09:09;11.95;;;2.63;;
74335;SDS011;62755;-33.398;-70.572;2022-11-14T01:11:38;8.13;;;2.33;;
74335;SDS011;62755;-33.398;-70.572;2022-11-14T01:14:08;8.27;;;1.90;;
74335;SDS011;62755;-33.398;-70.572;2022-11-14T01:16:37;24.52;;;2.97;;
74335;SDS011;62755;-33.398;-70.572;2022-11-14T01:19:08;15.15;;;2.78;;
74335;SDS011;62755;-33.398;-70.572;2022-11-14T01:21:38;8.25;;;2.00;;
74335;SDS011;62755;-33.398;-70.572;2022-11-14T01:24:07;14.43;;;1.88;;
74335;SDS011;62755;-33.398;-70.572;2022-11-14T01:26:37;6.43;;;2.20;;
74335;SDS011;62755;-33.398;-70.572;2022-11-14T01:29:06;8.48;;;2.40;;
74335;SDS011;62755;-33.398;-70.572;2022-11-14T01:31:36;9.02;;;2.13;;
74335;SDS011;62755;-33.398;-70.572;2022-11-14T01:34:06;14.27;;;3.00;;
74335;SDS011;62755;-33.398;-70.572;2022-11-14T01:36:37;16.50;;;2.50;;
74335;SDS011;62755;-33.398;-70.572;2022-11-14T01:39:07;10.75;;;2.17;;
74335;SDS011;62755;-33.398;-70.572;2022-11-14T01:41:36;15.18;;;2.42;;
74335;SDS011;62755;-33.398;-70.572;2022-11-14T01:44:10;6.78;;;2.75;;
74335;SDS011;62755;-33.398;-70.572;2022-11-14T01:49:16;17.00;;;3.72;;
74335;SDS011;62755;-33.398;-70.572;2022-11-14T01:51:49;7.45;;;2.30;;
74335;SDS011;62755;-33.398;-70.572;2022-11-14T01:54:22;30.48;;;10.15;;
74335;SDS011;62755;-33.398;-70.572;2022-11-14T01:56:55;23.13;;;8.48;;
74335;SDS011;62755;-33.398;-70.572;2022-11-14T01:59:28;27.38;;;12.35;;
74335;SDS011;62755;-33.398;-70.572;2022-11-14T02:02:02;22.73;;;5.22;;
74335;SDS011;62755;-33.398;-70.572;2022-11-14T02:04:38;23.17;;;10.95;;
74335;SDS011;62755;-33.398;-70.572;2022-11-14T02:07:10;14.18;;;5.07;;
74335;SDS011;62755;-33.398;-70.572;2022-11-14T02:09:43;15.25;;;4.65;;
74335;SDS011;62755;-33.398;-70.572;2022-11-14T02:12:13;18.63;;;6.07;;
74335;SDS011;62755;-33.398;-70.572;2022-11-14T02:14:45;19.55;;;5.32;;
74335;SDS011;62755;-33.398;-70.572;2022-11-14T02:17:16;12.00;;;3.22;;
74335;SDS011;62755;-33.398;-70.572;2022-11-14T02:19:49;12.52;;;4.88;;
74335;SDS011;62755;-33.398;-70.572;2022-11-14T02:22:22;10.27;;;3.30;;
74335;SDS011;62755;-33.398;-70.572;2022-11-14T02:24:51;32.78;;;12.02;;
74335;SDS011;62755;-33.398;-70.572;2022-11-14T02:27:20;19.48;;;7.13;;
74335;SDS011;62755;-33.398;-70.572;2022-11-14T02:29:50;13.05;;;3.55;;
74335;SDS011;62755;-33.398;-70.572;2022-11-14T02:32:19;14.13;;;4.03;;
74335;SDS011;62755;-33.398;-70.572;2022-11-14T02:34:49;10.80;;;2.10;;
74335;SDS011;62755;-33.398;-70.572;2022-11-14T02:37:18;12.13;;;2.20;;
74335;SDS011;62755;-33.398;-70.572;2022-11-14T02:39:49;8.77;;;2.90;;
74335;SDS011;62755;-33.398;-70.572;2022-11-14T02:42:19;9.02;;;2.53;;
74335;SDS011;62755;-33.398;-70.572;2022-11-14T02:44:48;4.78;;;1.92;;
74335;SDS011;62755;-33.398;-70.572;2022-11-14T02:47:18;8.98;;;2.40;;
74335;SDS011;62755;-33.398;-70.572;2022-11-14T02:49:49;10.35;;;2.55;;
74335;SDS011;62755;-33.398;-70.572;2022-11-14T02:52:19;8.45;;;2.03;;
74335;SDS011;62755;-33.398;-70.572;2022-11-14T02:54:50;14.77;;;2.40;;
74335;SDS011;62755;-33.398;-70.572;2022-11-14T02:57:19;9.80;;;2.75;;
74335;SDS011;62755;-33.398;-70.572;2022-11-14T02:59:49;12.63;;;3.10;;
74335;SDS011;62755;-33.398;-70.572;2022-11-14T03:02:18;17.55;;;4.20;;
74335;SDS011;62755;-33.398;-70.572;2022-11-14T03:04:48;9.20;;;3.05;;
74335;SDS011;62755;-33.398;-70.572;2022-11-14T03:07:17;9.00;;;2.60;;
74335;SDS011;62755;-33.398;-70.572;2022-11-14T03:09:48;11.82;;;3.75;;
74335;SDS011;62755;-33.398;-70.572;2022-11-14T03:12:18;9.77;;;3.45;;
74335;SDS011;62755;-33.398;-70.572;2022-11-14T03:14:47;10.82;;;4.30;;
74335;SDS011;62755;-33.398;-70.572;2022-11-14T03:17:17;14.25;;;4.65;;
74335;SDS011;62755;-33.398;-70.572;2022-11-14T03:19:49;36.08;;;15.43;;
74335;SDS011;62755;-33.398;-70.572;2022-11-14T03:22:18;17.63;;;7.05;;
74335;SDS011;62755;-33.398;-70.572;2022-11-14T03:24:50;19.65;;;6.75;;
74335;SDS011;62755;-33.398;-70.572;2022-11-14T03:27:19;15.73;;;4.88;;
74335;SDS011;62755;-33.398;-70.572;2022-11-14T03:29:49;14.02;;;3.80;;
74335;SDS011;62755;-33.398;-70.572;2022-11-14T03:32:18;16.42;;;5.18;;
74335;SDS011;62755;-33.398;-70.572;2022-11-14T03:34:47;24.98;;;9.27;;
74335;SDS011;62755;-33.398;-70.572;2022-11-14T03:37:17;20.85;;;6.65;;
74335;SDS011;62755;-33.398;-70.572;2022-11-14T03:39:46;24.50;;;8.52;;
74335;SDS011;62755;-33.398;-70.572;2022-11-14T03:42:17;22.88;;;7.78;;
74335;SDS011;62755;-33.398;-70.572;2022-11-14T03:44:47;26.90;;;8.73;;
74335;SDS011;62755;-33.398;-70.572;2022-11-14T03:47:16;21.90;;;8.85;;
74335;SDS011;62755;-33.398;-70.572;2022-11-14T03:49:46;19.35;;;5.72;;
74335;SDS011;62755;-33.398;-70.572;2022-11-14T03:52:15;23.48;;;8.82;;
74335;SDS011;62755;-33.398;-70.572;2022-11-14T03:54:45;17.40;;;6.35;;
74335;SDS011;62755;-33.398;-70.572;2022-11-14T03:57:16;40.08;;;16.17;;
74335;SDS011;62755;-33.398;-70.572;2022-11-14T03:59:46;29.38;;;13.95;;
74335;SDS011;62755;-33.398;-70.572;2022-11-14T04:02:15;21.75;;;4.85;;
74335;SDS011;62755;-33.398;-70.572;2022-11-14T04:04:45;12.48;;;3.88;;
74335;SDS011;62755;-33.398;-70.572;2022-11-14T04:07:14;14.07;;;4.25;;
74335;SDS011;62755;-33.398;-70.572;2022-11-14T04:09:44;15.60;;;3.42;;
74335;SDS011;62755;-33.398;-70.572;2022-11-14T04:12:13;16.90;;;2.92;;
74335;SDS011;62755;-33.398;-70.572;2022-11-14T04:14:44;7.35;;;2.60;;
74335;SDS011;62755;-33.398;-70.572;2022-11-14T04:17:14;8.20;;;2.20;;
74335;SDS011;62755;-33.398;-70.572;2022-11-14T04:19:43;9.32;;;2.28;;
74335;SDS011;62755;-33.398;-70.572;2022-11-14T04:22:13;7.65;;;2.42;;
74335;SDS011;62755;-33.398;-70.572;2022-11-14T04:24:42;8.43;;;1.92;;
74335;SDS011;62755;-33.398;-70.572;2022-11-14T04:27:11;6.25;;;1.88;;
74335;SDS011;62755;-33.398;-70.572;2022-11-14T04:29:43;8.90;;;2.33;;
74335;SDS011;62755;-33.398;-70.572;2022-11-14T04:32:12;7.05;;;2.15;;
74335;SDS011;62755;-33.398;-70.572;2022-11-14T04:34:41;11.23;;;1.80;;
74335;SDS011;62755;-33.398;-70.572;2022-11-14T04:37:11;9.35;;;2.38;;
74335;SDS011;62755;-33.398;-70.572;2022-11-14T04:39:41;6.75;;;1.92;;
74335;SDS011;62755;-33.398;-70.572;2022-11-14T04:42:10;6.38;;;1.75;;
74335;SDS011;62755;-33.398;-70.572;2022-11-14T04:44:39;14.63;;;1.90;;
74335;SDS011;62755;-33.398;-70.572;2022-11-14T04:47:11;14.18;;;1.90;;
74335;SDS011;62755;-33.398;-70.572;2022-11-14T04:49:40;10.52;;;2.15;;
74335;SDS011;62755;-33.398;-70.572;2022-11-14T04:52:10;4.85;;;1.85;;
74335;SDS011;62755;-33.398;-70.572;2022-11-14T04:54:39;11.27;;;1.98;;
74335;SDS011;62755;-33.398;-70.572;2022-11-14T04:57:08;23.05;;;2.17;;
74335;SDS011;62755;-33.398;-70.572;2022-11-14T04:59:38;6.78;;;1.85;;
74335;SDS011;62755;-33.398;-70.572;2022-11-14T05:02:09;9.48;;;2.03;;
74335;SDS011;62755;-33.398;-70.572;2022-11-14T05:04:38;4.55;;;1.50;;
74335;SDS011;62755;-33.398;-70.572;2022-11-14T05:07:09;8.20;;;1.42;;
74335;SDS011;62755;-33.398;-70.572;2022-11-14T05:09:38;7.40;;;1.70;;
74335;SDS011;62755;-33.398;-70.572;2022-11-14T05:12:08;6.65;;;1.33;;
74335;SDS011;62755;-33.398;-70.572;2022-11-14T05:14:37;3.45;;;1.52;;
74335;SDS011;62755;-33.398;-70.572;2022-11-14T05:17:07;2.03;;;1.20;;
74335;SDS011;62755;-33.398;-70.572;2022-11-14T05:19:38;6.70;;;1.60;;
74335;SDS011;62755;-33.398;-70.572;2022-11-14T05:22:07;3.78;;;1.25;;
74335;SDS011;62755;-33.398;-70.572;2022-11-14T05:24:37;7.65;;;1.40;;
74335;SDS011;62755;-33.398;-70.572;2022-11-14T05:27:06;4.95;;;1.23;;
74335;SDS011;62755;-33.398;-70.572;2022-11-14T05:29:36;5.68;;;1.80;;
74335;SDS011;62755;-33.398;-70.572;2022-11-14T05:32:05;8.75;;;1.63;;
74335;SDS011;62755;-33.398;-70.572;2022-11-14T05:34:36;8.48;;;1.75;;
74335;SDS011;62755;-33.398;-70.572;2022-11-14T05:37:06;3.88;;;1.42;;
74335;SDS011;62755;-33.398;-70.572;2022-11-14T05:39:35;4.85;;;1.55;;
74335;SDS011;62755;-33.398;-70.572;2022-11-14T05:42:05;6.00;;;1.73;;
74335;SDS011;62755;-33.398;-70.572;2022-11-14T05:44:34;4.55;;;1.35;;
74335;SDS011;62755;-33.398;-70.572;2022-11-14T05:47:04;9.23;;;1.65;;
74335;SDS011;62755;-33.398;-70.572;2022-11-14T05:49:33;6.47;;;1.52;;
74335;SDS011;62755;-33.398;-70.572;2022-11-14T05:52:04;9.00;;;1.50;;
74335;SDS011;62755;-33.398;-70.572;2022-11-14T05:54:34;8.10;;;1.60;;
74335;SDS011;62755;-33.398;-70.572;2022-11-14T05:57:03;7.72;;;1.17;;
74335;SDS011;62755;-33.398;-70.572;2022-11-14T05:59:33;3.78;;;1.48;;
74335;SDS011;62755;-33.398;-70.572;2022-11-14T06:02:02;7.05;;;1.58;;
74335;SDS011;62755;-33.398;-70.572;2022-11-14T06:04:31;7.85;;;1.65;;
74335;SDS011;62755;-33.398;-70.572;2022-11-14T06:07:03;10.55;;;2.03;;
74335;SDS011;62755;-33.398;-70.572;2022-11-14T06:09:32;3.42;;;1.55;;
74335;SDS011;62755;-33.398;-70.572;2022-11-14T06:12:01;5.90;;;1.75;;
74335;SDS011;62755;-33.398;-70.572;2022-11-14T06:14:32;7.82;;;1.90;;
74335;SDS011;62755;-33.398;-70.572;2022-11-14T06:17:02;9.80;;;1.67;;
74335;SDS011;62755;-33.398;-70.572;2022-11-14T06:19:31;6.35;;;1.63;;
74335;SDS011;62755;-33.398;-70.572;2022-11-14T06:22:03;5.18;;;1.67;;
74335;SDS011;62755;-33.398;-70.572;2022-11-14T06:24:32;4.75;;;1.65;;
74335;SDS011;62755;-33.398;-70.572;2022-11-14T06:27:01;4.50;;;1.52;;
74335;SDS011;62755;-33.398;-70.572;2022-11-14T06:29:31;5.10;;;1.65;;
74335;SDS011;62755;-33.398;-70.572;2022-11-14T06:32:00;5.38;;;1.60;;
74335;SDS011;62755;-33.398;-70.572;2022-11-14T06:34:30;7.10;;;1.27;;
74335;SDS011;62755;-33.398;-70.572;2022-11-14T06:36:59;3.58;;;1.50;;
74335;SDS011;62755;-33.398;-70.572;2022-11-14T06:39:31;8.65;;;1.40;;
74335;SDS011;62755;-33.398;-70.572;2022-11-14T06:42:00;6.88;;;1.30;;
74335;SDS011;62755;-33.398;-70.572;2022-11-14T06:44:30;7.20;;;1.45;;
74335;SDS011;62755;-33.398;-70.572;2022-11-14T06:46:59;4.60;;;1.50;;
74335;SDS011;62755;-33.398;-70.572;2022-11-14T06:49:29;8.75;;;1.50;;
74335;SDS011;62755;-33.398;-70.572;2022-11-14T06:51:58;7.25;;;1.33;;
74335;SDS011;62755;-33.398;-70.572;2022-11-14T06:54:29;5.50;;;1.40;;
74335;SDS011;62755;-33.398;-70.572;2022-11-14T06:56:59;9.00;;;1.35;;
74335;SDS011;62755;-33.398;-70.572;2022-11-14T06:59:28;4.07;;;1.70;;
74335;SDS011;62755;-33.398;-70.572;2022-11-14T07:01:58;11.07;;;1.88;;
74335;SDS011;62755;-33.398;-70.572;2022-11-14T07:04:27;6.82;;;1.60;;
74335;SDS011;62755;-33.398;-70.572;2022-11-14T07:06:57;7.95;;;1.40;;
74335;SDS011;62755;-33.398;-70.572;2022-11-14T07:09:26;6.63;;;1.60;;
74335;SDS011;62755;-33.398;-70.572;2022-11-14T07:11:57;6.65;;;1.40;;
74335;SDS011;62755;-33.398;-70.572;2022-11-14T07:14:27;5.65;;;1.23;;
74335;SDS011;62755;-33.398;-70.572;2022-11-14T07:16:57;3.13;;;1.30;;
74335;SDS011;62755;-33.398;-70.572;2022-11-14T07:19:26;7.63;;;1.30;;
74335;SDS011;62755;-33.398;-70.572;2022-11-14T07:21:56;8.18;;;1.50;;
74335;SDS011;62755;-33.398;-70.572;2022-11-14T07:24:25;5.40;;;1.40;;
74335;SDS011;62755;-33.398;-70.572;2022-11-14T07:26:56;4.55;;;1.40;;
74335;SDS011;62755;-33.398;-70.572;2022-11-14T07:29:26;2.85;;;1.27;;
74335;SDS011;62755;-33.398;-70.572;2022-11-14T07:31:56;10.48;;;1.40;;
74335;SDS011;62755;-33.398;-70.572;2022-11-14T07:34:26;5.78;;;1.27;;
74335;SDS011;62755;-33.398;-70.572;2022-11-14T07:36:55;3.85;;;1.20;;
74335;SDS011;62755;-33.398;-70.572;2022-11-14T07:39:24;9.02;;;1.30;;
74335;SDS011;62755;-33.398;-70.572;2022-11-14T07:41:54;5.97;;;1.27;;
74335;SDS011;62755;-33.398;-70.572;2022-11-14T07:44:25;4.50;;;1.55;;
74335;SDS011;62755;-33.398;-70.572;2022-11-14T07:46:55;6.63;;;1.50;;
74335;SDS011;62755;-33.398;-70.572;2022-11-14T07:49:24;3.53;;;1.30;;
74335;SDS011;62755;-33.398;-70.572;2022-11-14T07:51:54;7.40;;;1.40;;
74335;SDS011;62755;-33.398;-70.572;2022-11-14T07:54:23;4.72;;;1.60;;
74335;SDS011;62755;-33.398;-70.572;2022-11-14T07:56:52;9.55;;;1.63;;
74335;SDS011;62755;-33.398;-70.572;2022-11-14T07:59:24;4.47;;;1.42;;
74335;SDS011;62755;-33.398;-70.572;2022-11-14T08:01:53;5.20;;;1.30;;
74335;SDS011;62755;-33.398;-70.572;2022-11-14T08:04:23;5.38;;;1.33;;
74335;SDS011;62755;-33.398;-70.572;2022-11-14T08:06:52;2.90;;;1.38;;
74335;SDS011;62755;-33.398;-70.572;2022-11-14T08:09:22;5.00;;;1.20;;
74335;SDS011;62755;-33.398;-70.572;2022-11-14T08:11:51;2.28;;;1.20;;
74335;SDS011;62755;-33.398;-70.572;2022-11-14T08:14:21;5.03;;;1.08;;
74335;SDS011;62755;-33.398;-70.572;2022-11-14T08:16:52;8.68;;;1.50;;
74335;SDS011;62755;-33.398;-70.572;2022-11-14T08:19:22;4.85;;;1.55;;
74335;SDS011;62755;-33.398;-70.572;2022-11-14T08:21:51;13.50;;;1.35;;
74335;SDS011;62755;-33.398;-70.572;2022-11-14T08:24:21;5.88;;;1.50;;
74335;SDS011;62755;-33.398;-70.572;2022-11-14T08:26:50;5.60;;;1.27;;
74335;SDS011;62755;-33.398;-70.572;2022-11-14T08:29:20;4.80;;;1.30;;
74335;SDS011;62755;-33.398;-70.572;2022-11-14T08:31:51;6.18;;;1.17;;
74335;SDS011;62755;-33.398;-70.572;2022-11-14T08:34:21;3.92;;;1.15;;
74335;SDS011;62755;-33.398;-70.572;2022-11-14T08:36:51;6.60;;;1.25;;
74335;SDS011;62755;-33.398;-70.572;2022-11-14T08:39:21;7.15;;;1.60;;
74335;SDS011;62755;-33.398;-70.572;2022-11-14T08:41:51;7.95;;;1.45;;
74335;SDS011;62755;-33.398;-70.572;2022-11-14T08:44:20;9.32;;;1.55;;
74335;SDS011;62755;-33.398;-70.572;2022-11-14T08:46:52;3.92;;;1.33;;
74335;SDS011;62755;-33.398;-70.572;2022-11-14T08:49:22;9.38;;;1.70;;
74335;SDS011;62755;-33.398;-70.572;2022-11-14T08:51:51;5.68;;;1.27;;
74335;SDS011;62755;-33.398;-70.572;2022-11-14T08:54:21;3.88;;;1.38;;
74335;SDS011;62755;-33.398;-70.572;2022-11-14T08:56:50;7.53;;;1.30;;
74335;SDS011;62755;-33.398;-70.572;2022-11-14T08:59:20;8.10;;;1.45;;
74335;SDS011;62755;-33.398;-70.572;2022-11-14T09:01:51;6.13;;;1.33;;
74335;SDS011;62755;-33.398;-70.572;2022-11-14T09:04:21;11.95;;;1.30;;
74335;SDS011;62755;-33.398;-70.572;2022-11-14T09:06:50;9.15;;;1.27;;
74335;SDS011;62755;-33.398;-70.572;2022-11-14T09:09:20;7.63;;;1.60;;
74335;SDS011;62755;-33.398;-70.572;2022-11-14T09:11:49;11.27;;;1.30;;
74335;SDS011;62755;-33.398;-70.572;2022-11-14T09:14:19;10.23;;;1.65;;
74335;SDS011;62755;-33.398;-70.572;2022-11-14T09:16:48;7.32;;;2.10;;
74335;SDS011;62755;-33.398;-70.572;2022-11-14T09:19:20;6.97;;;1.48;;
74335;SDS011;62755;-33.398;-70.572;2022-11-14T09:21:49;2.25;;;1.10;;
74335;SDS011;62755;-33.398;-70.572;2022-11-14T09:24:19;3.00;;;1.10;;
74335;SDS011;62755;-33.398;-70.572;2022-11-14T09:26:49;5.22;;;1.25;;
74335;SDS011;62755;-33.398;-70.572;2022-11-14T09:29:19;9.75;;;1.10;;
74335;SDS011;62755;-33.398;-70.572;2022-11-14T09:31:49;9.57;;;1.40;;
74335;SDS011;62755;-33.398;-70.572;2022-11-14T09:34:22;11.07;;;1.45;;
74335;SDS011;62755;-33.398;-70.572;2022-11-14T09:36:51;8.07;;;1.38;;
74335;SDS011;62755;-33.398;-70.572;2022-11-14T09:39:21;3.83;;;1.23;;
74335;SDS011;62755;-33.398;-70.572;2022-11-14T09:41:54;5.53;;;2.28;;
74335;SDS011;62755;-33.398;-70.572;2022-11-14T09:44:34;3.20;;;1.20;;
74335;SDS011;62755;-33.398;-70.572;2022-11-14T09:47:23;5.85;;;1.13;;
74335;SDS011;62755;-33.398;-70.572;2022-11-14T09:49:58;6.63;;;1.38;;
74335;SDS011;62755;-33.398;-70.572;2022-11-14T09:52:34;5.50;;;1.38;;
74335;SDS011;62755;-33.398;-70.572;2022-11-14T09:55:09;6.85;;;1.77;;
74335;SDS011;62755;-33.398;-70.572;2022-11-14T09:57:40;7.15;;;1.30;;
74335;SDS011;62755;-33.398;-70.572;2022-11-14T10:00:14;14.25;;;2.08;;
74335;SDS011;62755;-33.398;-70.572;2022-11-14T10:02:50;11.85;;;1.92;;
74335;SDS011;62755;-33.398;-70.572;2022-11-14T10:08:34;5.80;;;1.40;;
74335;SDS011;62755;-33.398;-70.572;2022-11-14T10:11:16;8.50;;;1.35;;
74335;SDS011;62755;-33.398;-70.572;2022-11-14T10:13:54;5.05;;;1.30;;
74335;SDS011;62755;-33.398;-70.572;2022-11-14T10:16:36;14.50;;;1.92;;
74335;SDS011;62755;-33.398;-70.572;2022-11-14T10:19:16;3.83;;;1.30;;
74335;SDS011;62755;-33.398;-70.572;2022-11-14T10:21:52;7.20;;;1.63;;
74335;SDS011;62755;-33.398;-70.572;2022-11-14T10:24:38;6.13;;;1.60;;
74335;SDS011;62755;-33.398;-70.572;2022-11-14T10:27:28;7.55;;;1.80;;
74335;SDS011;62755;-33.398;-70.572;2022-11-14T10:30:02;9.38;;;1.85;;
74335;SDS011;62755;-33.398;-70.572;2022-11-14T10:32:44;7.85;;;1.58;;
74335;SDS011;62755;-33.398;-70.572;2022-11-14T10:35:33;13.77;;;1.90;;
74335;SDS011;62755;-33.398;-70.572;2022-11-14T10:38:08;9.63;;;1.70;;
74335;SDS011;62755;-33.398;-70.572;2022-11-14T10:40:41;11.52;;;1.75;;
74335;SDS011;62755;-33.398;-70.572;2022-11-14T10:43:18;5.60;;;1.55;;
74335;SDS011;62755;-33.398;-70.572;2022-11-14T10:45:53;8.13;;;1.65;;
74335;SDS011;62755;-33.398;-70.572;2022-11-14T10:48:29;9.68;;;2.00;;
74335;SDS011;62755;-33.398;-70.572;2022-11-14T10:51:04;14.02;;;2.50;;
74335;SDS011;62755;-33.398;-70.572;2022-11-14T10:53:44;8.40;;;2.00;;
74335;SDS011;62755;-33.398;-70.572;2022-11-14T10:56:22;9.82;;;1.50;;
74335;SDS011;62755;-33.398;-70.572;2022-11-14T10:58:51;9.63;;;2.10;;
74335;SDS011;62755;-33.398;-70.572;2022-11-14T11:01:34;9.15;;;2.13;;
74335;SDS011;62755;-33.398;-70.572;2022-11-14T11:04:12;15.80;;;2.08;;
74335;SDS011;62755;-33.398;-70.572;2022-11-14T11:06:50;10.70;;;2.30;;
74335;SDS011;62755;-33.398;-70.572;2022-11-14T11:09:21;14.07;;;2.20;;
74335;SDS011;62755;-33.398;-70.572;2022-11-14T11:12:08;8.88;;;1.90;;
74335;SDS011;62755;-33.398;-70.572;2022-11-14T11:14:44;15.82;;;2.38;;
74335;SDS011;62755;-33.398;-70.572;2022-11-14T11:17:16;9.85;;;2.55;;
74335;SDS011;62755;-33.398;-70.572;2022-11-14T11:19:50;10.68;;;2.10;;
74335;SDS011;62755;-33.398;-70.572;2022-11-14T11:22:25;8.68;;;2.00;;
74335;SDS011;62755;-33.398;-70.572;2022-11-14T11:24:57;11.45;;;2.08;;
74335;SDS011;62755;-33.398;-70.572;2022-11-14T11:27:27;9.15;;;2.10;;
74335;SDS011;62755;-33.398;-70.572;2022-11-14T11:30:01;9.88;;;2.22;;
74335;SDS011;62755;-33.398;-70.572;2022-11-14T11:32:33;9.55;;;2.53;;
74335;SDS011;62755;-33.398;-70.572;2022-11-14T11:35:04;12.98;;;2.40;;
74335;SDS011;62755;-33.398;-70.572;2022-11-14T11:37:42;13.93;;;3.75;;
74335;SDS011;62755;-33.398;-70.572;2022-11-14T11:40:16;10.43;;;2.55;;
74335;SDS011;62755;-33.398;-70.572;2022-11-14T11:42:49;9.20;;;2.75;;
74335;SDS011;62755;-33.398;-70.572;2022-11-14T11:45:25;6.50;;;1.95;;
74335;SDS011;62755;-33.398;-70.572;2022-11-14T11:47:56;6.53;;;2.20;;
74335;SDS011;62755;-33.398;-70.572;2022-11-14T11:50:30;7.63;;;2.72;;
74335;SDS011;62755;-33.398;-70.572;2022-11-14T11:53:04;7.07;;;1.80;;
74335;SDS011;62755;-33.398;-70.572;2022-11-14T11:55:43;10.38;;;2.33;;
74335;SDS011;62755;-33.398;-70.572;2022-11-14T11:58:18;15.80;;;2.55;;
74335;SDS011;62755;-33.398;-70.572;2022-11-14T12:00:51;11.20;;;2.08;;
74335;SDS011;62755;-33.398;-70.572;2022-11-14T12:03:21;10.45;;;2.17;;
74335;SDS011;62755;-33.398;-70.572;2022-11-14T12:05:56;16.17;;;3.30;;
74335;SDS011;62755;-33.398;-70.572;2022-11-14T12:08:36;6.38;;;2.42;;
74335;SDS011;62755;-33.398;-70.572;2022-11-14T12:11:15;9.95;;;2.25;;
74335;SDS011;62755;-33.398;-70.572;2022-11-14T12:14:06;10.20;;;2.00;;
74335;SDS011;62755;-33.398;-70.572;2022-11-14T12:17:18;7.43;;;1.70;;
74335;SDS011;62755;-33.398;-70.572;2022-11-14T12:22:55;14.13;;;2.50;;
74335;SDS011;62755;-33.398;-70.572;2022-11-14T12:25:44;9.13;;;2.45;;
74335;SDS011;62755;-33.398;-70.572;2022-11-14T12:28:30;10.15;;;2.20;;
74335;SDS011;62755;-33.398;-70.572;2022-11-14T12:31:12;13.30;;;3.20;;
74335;SDS011;62755;-33.398;-70.572;2022-11-14T12:33:44;11.40;;;2.25;;
74335;SDS011;62755;-33.398;-70.572;2022-11-14T12:38:54;6.30;;;2.00;;
74335;SDS011;62755;-33.398;-70.572;2022-11-14T12:41:27;5.45;;;2.20;;
74335;SDS011;62755;-33.398;-70.572;2022-11-14T12:44:16;6.68;;;2.20;;
74335;SDS011;62755;-33.398;-70.572;2022-11-14T12:47:17;12.85;;;2.58;;
74335;SDS011;62755;-33.398;-70.572;2022-11-14T12:50:12;10.57;;;2.20;;
74335;SDS011;62755;-33.398;-70.572;2022-11-14T12:58:26;16.23;;;2.97;;
74335;SDS011;62755;-33.398;-70.572;2022-11-14T13:01:19;11.93;;;3.40;;
74335;SDS011;62755;-33.398;-70.572;2022-11-14T13:04:02;9.77;;;3.03;;
74335;SDS011;62755;-33.398;-70.572;2022-11-14T13:06:44;12.93;;;4.80;;
74335;SDS011;62755;-33.398;-70.572;2022-11-14T13:09:31;21.13;;;4.30;;
74335;SDS011;62755;-33.398;-70.572;2022-11-14T13:12:17;14.75;;;3.60;;
74335;SDS011;62755;-33.398;-70.572;2022-11-14T13:18:29;13.57;;;3.47;;
74335;SDS011;62755;-33.398;-70.572;2022-11-14T13:21:17;11.73;;;2.88;;
74335;SDS011;62755;-33.398;-70.572;2022-11-14T13:24:05;5.95;;;2.08;;
74335;SDS011;62755;-33.398;-70.572;2022-11-14T13:26:35;18.85;;;3.13;;
74335;SDS011;62755;-33.398;-70.572;2022-11-14T13:29:06;12.13;;;3.03;;
74335;SDS011;62755;-33.398;-70.572;2022-11-14T13:31:57;13.68;;;3.65;;
74335;SDS011;62755;-33.398;-70.572;2022-11-14T13:34:36;12.70;;;3.72;;
74335;SDS011;62755;-33.398;-70.572;2022-11-14T13:37:13;8.57;;;3.28;;
74335;SDS011;62755;-33.398;-70.572;2022-11-14T13:40:00;12.95;;;3.03;;
74335;SDS011;62755;-33.398;-70.572;2022-11-14T13:42:39;10.20;;;3.50;;
74335;SDS011;62755;-33.398;-70.572;2022-11-14T13:51:13;12.98;;;3.95;;
74335;SDS011;62755;-33.398;-70.572;2022-11-14T13:53:45;13.90;;;3.70;;
74335;SDS011;62755;-33.398;-70.572;2022-11-14T13:56:18;19.80;;;4.18;;
74335;SDS011;62755;-33.398;-70.572;2022-11-14T13:59:04;14.18;;;4.90;;
74335;SDS011;62755;-33.398;-70.572;2022-11-14T14:02:02;13.10;;;4.43;;
74335;SDS011;62755;-33.398;-70.572;2022-11-14T14:04:50;16.60;;;4.60;;
74335;SDS011;62755;-33.398;-70.572;2022-11-14T14:07:26;20.30;;;5.05;;
74335;SDS011;62755;-33.398;-70.572;2022-11-14T14:10:07;19.80;;;4.20;;
74335;SDS011;62755;-33.398;-70.572;2022-11-14T14:12:52;11.55;;;4.20;;
74335;SDS011;62755;-33.398;-70.572;2022-11-14T14:15:32;14.77;;;4.40;;
74335;SDS011;62755;-33.398;-70.572;2022-11-14T14:18:08;16.45;;;4.63;;
74335;SDS011;62755;-33.398;-70.572;2022-11-14T14:20:49;19.13;;;5.18;;
74335;SDS011;62755;-33.398;-70.572;2022-11-14T14:23:29;15.15;;;4.05;;
74335;SDS011;62755;-33.398;-70.572;2022-11-14T14:26:06;17.55;;;4.28;;
74335;SDS011;62755;-33.398;-70.572;2022-11-14T14:28:47;20.00;;;5.22;;
74335;SDS011;62755;-33.398;-70.572;2022-11-14T14:31:23;12.60;;;4.70;;
74335;SDS011;62755;-33.398;-70.572;2022-11-14T14:33:58;16.77;;;5.18;;
74335;SDS011;62755;-33.398;-70.572;2022-11-14T14:36:29;12.63;;;5.13;;
74335;SDS011;62755;-33.398;-70.572;2022-11-14T14:39:08;10.57;;;5.55;;
74335;SDS011;62755;-33.398;-70.572;2022-11-14T14:41:44;23.98;;;6.70;;
74335;SDS011;62755;-33.398;-70.572;2022-11-14T14:44:17;22.08;;;6.30;;
74335;SDS011;62755;-33.398;-70.572;2022-11-14T14:46:50;19.02;;;6.65;;
74335;SDS011;62755;-33.398;-70.572;2022-11-14T14:49:21;17.33;;;6.63;;
74335;SDS011;62755;-33.398;-70.572;2022-11-14T14:51:54;18.67;;;7.00;;
74335;SDS011;62755;-33.398;-70.572;2022-11-14T14:54:24;22.13;;;7.15;;
74335;SDS011;62755;-33.398;-70.572;2022-11-14T14:56:56;16.80;;;8.38;;
74335;SDS011;62755;-33.398;-70.572;2022-11-14T14:59:28;19.35;;;8.48;;
74335;SDS011;62755;-33.398;-70.572;2022-11-14T15:01:58;24.30;;;8.15;;